Terminal Aerodrome Forecast
Issued by NWS

Home | Current Version | Previous Version | Text Only | Print | Product List | Glossary On
Versions: 1 2 3 4 5 6 7 8 9 10 11 12 13
000
FTAK31 PAJN 031740
TAFASI
TAF
PASI 031740Z 0318/0418 32011KT P6SM SCT020 SCT080
     FM032100 28011KT P6SM SCT040 BKN080
     FM040000 28008KT P6SM BKN150
     FM040300 31008KT P6SM BKN100
     FM040600 VRB03KT P6SM BKN050 BKN100=

USA.gov is the U.S. government's official web portal to all federal, state and local government web resources and services.